Terminal Aerodrome Forecast
Issued by NWS

Home | Current Version | Previous Version | Text Only | Print | Product List | Glossary On
Versions: 1 2 3 4 5 6 7 8 9 10 11 12 13 14 15 16 17 18 19 20 21 22 23 24
000
FTAK31 PANC 081222 AAA
TAFAHO
TAF AMD
PAHO 081222Z 0812/0912 04006KT P6SM -SHSN BKN015 OVC060
      TEMPO 0812/0814 SCT015
     FM081400 04005KT P6SM VCSH OVC025
     FM090500 04008KT P6SM -SHSN BKN035=

USA.gov is the U.S. government's official web portal to all federal, state and local government web resources and services.